Tiempo atmosférico en la estación meteorológica de Albacete, Albacete (674 m.)



Fecha
DESCASC
Temp. máxima en grados centígrados (hora)
DESCASC
Temp. mínima en grados centígrados (hora)
DESCASC
Temp. media en grados centígrados
DESCASC
Racha de viento máxima en m/sg (hora)
DESCASC
Velocidad máxima media en intervalos de 10 minutos(hora)
DESCASC
Precipitaciones diarias en mm
DESCASC
Precipitaciones de 00:00 a 06:00 en mm
DESCASC
Precipitaciones de 06:00 a 12:00 en mm
DESCASC
Precipitaciones de 12:00 a 18:00 en mm
DESCASC
Precipitaciones de 18:00 a 24:00 en mm
DESCASC
26-03-2020 15.2 (17:00) 4.4 (07:50) 9.8 8.89 (13:50) 2.5 (11:20) 0.1 0 0.1 0 0
25-03-2020 14.4 (17:20) 3.7 (04:40) 9 9.17 (18:00) 3.06 (17:50) 0.2 0 0 0 0.2
24-03-2020 9.5 (12:20) 6.5 (23:59) 8 11.67 (10:10) 4.72 (10:20) 8.9 4.1 4.8 0 0
23-03-2020 13.6 (16:20) 7.3 (05:30) 10.5 8.89 (16:50) 3.61 (13:30) 3.9 0.7 0 2 1.2
22-03-2020 10.2 (18:10) 3.4 (05:00) 6.8 5.28 (18:00) 1.67 (16:30) 2.2 0 0 2.1 0.1
21-03-2020 11.9 (11:10) 4.8 (00:00) 8.3 7.22 (12:40) 3.06 (12:10) 12.6 0 0 7.3 5.3
20-03-2020 12.5 (12:50) 7.1 (00:00) 9.8 8.33 (16:40) 3.61 (17:00) 0 0 0 0 0
19-03-2020 13.7 (14:00) 4.2 (00:00) 8.9 7.5 (14:50) 2.78 (12:10) 0 0 0 0 0
18-03-2020 15.5 (15:50) 6.5 (00:00) 11 7.5 (17:00) 3.33 (16:40) 0 0 0 0 0
17-03-2020 12.2 (14:20) 2.5 (00:00) 7.3 13.06 (19:20) 5.56 (19:10) 0.2 0 0 0.2 0
16-03-2020 12.4 (00:10) 2.9 (00:00) 7.6 10.83 (07:10) 5 (08:00) 6.6 3.5 3 0 0.1
15-03-2020 21.5 (16:10) 10 (00:00) 15.8 9.17 (18:10) 3.33 (16:40) 0 0 0 0 0
14-03-2020 21.9 (15:40) 6.5 (00:00) 14.2 6.11 (23:50) 1.94 (02:20) 0 0 0 0 0
13-03-2020 22.6 (15:20) 8.9 (08:30) 15.8 7.5 (17:30) 3.06 (14:00) 0 0 0 0 0
12-03-2020 26.9 (15:20) 8.4 (00:00) 17.6 6.67 (13:50) 2.5 (17:20) 0 0 0 0 0
11-03-2020 28 (17:00) 7.6 (00:00) 17.8 4.72 (14:00) 1.39 (00:20) 0 0 0 0 0
10-03-2020 22.7 (16:40) 7.1 (00:00) 14.9 6.67 (14:10) 2.78 (15:10) 0 0 0 0 0
09-03-2020 17.5 (17:10) 6.3 (00:00) 11.9 10.83 (14:50) 4.17 (16:20) 0 0 0 0 0
08-03-2020 19.5 (16:00) 2.2 (00:00) 10.9 8.33 (16:20) 3.33 (15:30) 0 0 0 0 0
07-03-2020 15.8 (16:30) 0.9 (00:00) 8.4 10.28 (13:10) 3.61 (13:10) 0 0 0 0 0
06-03-2020 13 (15:30) 4.8 (00:00) 8.9 16.39 (13:50) 6.11 (13:50) 0.2 0 0.1 0.1 0
05-03-2020 16 (12:10) 9.3 (00:00) 12.7 16.67 (17:40) 7.5 (15:00) 0 0 0 0 0
04-03-2020 15.8 (13:40) 11.1 (00:00) 13.5 13.33 (12:00) 5.83 (10:30) 0 0 0 0 0
03-03-2020 15 (15:40) 4.8 (00:00) 9.9 20 (14:10) 8.89 (14:10) 0 0 0 0 0
02-03-2020 15.4 (12:50) 4.7 (00:00) 10 20.83 (12:50) 8.89 (15:00) 3 0 1.5 1.5 0
01-03-2020 15.7 (15:00) 9.4 (00:00) 12.5 16.11 (13:10) 6.67 (12:20) 0.1 0.1 0 0 0
29-02-2020 17.5 (14:10) 8 (00:00) 12.8 10.56 (14:40) 4.44 (14:40) 0 0 0 0 0
28-02-2020 20.8 (15:40) 4.8 (00:00) 12.8 6.67 (15:40) 2.22 (22:00) 0 0 0 0 0

Gráficas

Temp. máximas Temp. mínimas Temp. medias Precipitaciones Rachas de viento máximas Velocidades máximas media en intervalos de 10 minutos

Datos horarios

Fecha y hora oficial Temperatura (ºC) Velocidad del viento (km/h) Dirección del viento Racha (km/h) Dirección de racha Precipitación (mm) Presión (hPa) Tendencia (hPa) Humedad (%)
2020-03-28 23:00:00 7.4 0 Calma 6 Sur 0 940.8 1.1 78
2020-03-28 22:00:00 8.3 0 Calma 6 Oeste 0 940.8 1.7 72
2020-03-28 21:00:00 9.8 0 Calma 9 Oeste 0 940.3 1.6 65
2020-03-28 20:00:00 11.2 0 Calma 5 Oeste 0 939.7 1 53
2020-03-28 19:00:00 12.4 0 Calma 9 Norte 0 939.1 0.6 43
2020-03-28 18:00:00 12.7 3 Oeste 10 Sudoeste 0 938.7 -0.4 43
2020-03-28 17:00:00 12.3 2 Este 11 Este 0 938.7 -0.7 45
2020-03-28 16:00:00 11.8 3 Nordeste 15 Sudeste 0 938.5 -1.1 48
2020-03-28 15:00:00 12 3 Nordeste 15 Este 0 939.1 -0.8 49
2020-03-28 14:00:00 11.5 6 Nordeste 21 Este 0.1 939.4 -0.6 47
2020-03-28 13:00:00 11.2 3 Nordeste 18 Nordeste 0 939.6 0.1 47
2020-03-28 12:00:00 9.8 3 Nordeste 11 Este 0 939.9 0.8 58
2020-03-28 11:00:00 7.3 2 Este 10 Este 0 940 1.5 79
2020-03-28 10:00:00 5 2 Sudeste 9 Sur 0 939.5 1.4 98
2020-03-28 09:00:00 3.9 0 Calma 6 Este 0 939.1 1.1 98
2020-03-28 08:00:00 3 2 Este 5 Este 0 938.5 1.1 98
2020-03-28 07:00:00 3.3 0 Calma 6 Sudeste 0 938.1 0.7 98
2020-03-28 06:00:00 3.6 0 Calma 6 Sudeste 0 938 0.6 98
2020-03-28 05:00:00 4 0 Calma 5 Sur 0 937.4 -0.1 98
2020-03-28 04:00:00 4.2 0 Calma 3 Sudoeste 0 937.4 0.1 98
2020-03-28 03:00:00 4.5 0 Calma 4 Sudeste 0 937.4 0.5 98
2020-03-28 02:00:00 4.6 0 Calma 8 Nordeste 0.1 937.5 0.8 98
2020-03-28 01:00:00 4.5 3 Nordeste 8 Nordeste 0 937.3 0.7 98
2020-03-28 00:00:00 4.2 3 Este 9 Este 0.1 936.9 1 98
2020-03-27 23:00:00 4 2 Nordeste 7 Nordeste 1.5 936.7 1.4 98
2020-03-27 22:00:00 3.7 0 Calma 9 Este 3 936.6 1.8 98
2020-03-27 21:00:00 3.2 3 Nordeste 14 Nordeste 2.7 935.9 1.5 98
2020-03-27 20:00:00 2.8 0 Calma 13 Este 2.5 935.3 1.1 97
2020-03-27 19:00:00 2.9 2 Este 20 Este 3.2 934.8 1 97
2020-03-27 18:00:00 3.2 7 Este 18 Este 3.4 934.4 0.4 97
2020-03-27 17:00:00 3.3 7 Este 21 Este 2.6 934.2 0 97
2020-03-27 16:00:00 3.6 9 Nordeste 19 Nordeste 2.6 933.8 -0.8 98
2020-03-27 15:00:00 3.3 5 Nordeste 18 Este 2.3 934 -0.7 98
2020-03-27 14:00:00 3.2 6 Nordeste 14 Este 1.9 934.2 -0.2 98
2020-03-27 13:00:00 2.8 4 Nordeste 13 Este 1.9 934.6 1 97
2020-03-27 12:00:00 2.5 4 Este 15 Este 4.6 934.7 1.7 96
2020-03-27 11:00:00 3.2 4 Este 15 Este 3.4 934.4 1.7 96
2020-03-27 10:00:00 3.2 6 Este 21 Este 0.4 933.6 1.3 96
2020-03-27 09:00:00 3.5 8 Este 23 Nordeste 1.4 933 0.9 92
2020-03-27 08:00:00 4.5 5 Este 23 Este 0.1 932.7 0.6 87
2020-03-27 07:00:00 4.6 3 Nordeste 17 Este 0 932.3 0.1 83
2020-03-27 06:00:00 5 6 Este 18 Este 0 932.1 -0.6 81
2020-03-27 05:00:00 5.2 8 Este 15 Este 0 932.1 -0.8 83
2020-03-27 04:00:00 5 4 Este 11 Nordeste 0 932.2 -0.5 86
2020-03-27 03:00:00 5.4 4 Este 10 Este 0 932.7 0 83
2020-03-27 02:00:00 5.8 3 Este 22 Sudeste 0 932.9 0.6 79
2020-03-27 01:00:00 6.2 8 Sudeste 23 Sudeste 0 932.7 1.1 75
2020-03-27 00:00:00 6.6 9 Sudeste 22 Este 0 932.7 1.7 72
2020-03-26 23:00:00 6.1 2 Este 12 Este 0 932.3 1.9 77
2020-03-26 22:00:00 6.9 5 Este 12 Este 0 931.6 1.6 69
2020-03-26 21:00:00 9.5 0 Calma 6 Este 0 931 1.2 53
2020-03-26 20:00:00 10.8 2 Este 6 Norte 0 930.4 0.6 42
2020-03-26 19:00:00 13.2 3 Norte 12 Norte 0 930 0.1 32
2020-03-26 18:00:00 14.5 3 Noroeste 20 Oeste 0 929.8 -0.1 27
2020-03-26 17:00:00 14.9 5 Noroeste 31 Oeste 0 929.8 -0.2 25
2020-03-26 16:00:00 14.9 6 Noroeste 28 Oeste 0 929.9 -0.7 25
2020-03-26 15:00:00 14.6 6 Noroeste 30 Noroeste 0 929.9 -1.3 26
2020-03-26 14:00:00 14 9 Oeste 32 Oeste 0 930 -1.6 30
2020-03-26 13:00:00 13.1 6 Noroeste 27 Oeste 0 930.6 -1 35
2020-03-26 12:00:00 10.8 8 Oeste 25 Oeste 0.1 931.2 -0.5 60
2020-03-26 11:00:00 8.1 9 Oeste 24 Oeste 0 931.6 0.4 80
2020-03-26 10:00:00 6.7 6 Oeste 21 Oeste 0 931.6 0.6 90
2020-03-26 09:00:00 5.9 5 Noroeste 23 Norte 0 931.7 0.5 96
2020-03-26 08:00:00 4.7 2 Noroeste 10 Sudoeste 0 931.2 -0.2 95
2020-03-26 07:00:00 5.9 3 Oeste 11 Oeste 0 931 -1 91
2020-03-26 06:00:00 6.7 5 Oeste 10 Oeste 0 931.2 -1.4 88
2020-03-26 05:00:00 7 0 Calma 8 Oeste 0 931.4 -1.9 89
2020-03-26 04:00:00 6.5 3 Sur 13 Sur 0 932 -2.2 93
2020-03-26 03:00:00 6.7 3 Sur 14 Sudoeste 0 932.6 -2.7 93
2020-03-26 02:00:00 6.3 4 Sur 19 Sudoeste 0 933.3 -2.4 93
2020-03-26 01:00:00 6.6 6 Sur 17 Sur 0 934.2 -1.5 92
2020-03-26 00:00:00 7 4 Sudoeste 16 Sur 0 935.3 -0.7 88
2020-03-25 23:00:00 7.5 5 Sudeste 22 Este 0 935.7 0.2 83
2020-03-25 22:00:00 8.3 3 Sudeste 18 Sur 0.2 935.7 0.2 82
2020-03-25 21:00:00 8.9 5 Sur 14 Sudoeste 0 936 0.3 76
2020-03-25 20:00:00 8.3 4 Nordeste 15 Este 0 935.5 0.5 80
2020-03-25 19:00:00 8.6 8 Este 26 Este 0 935.5 0 77
2020-03-25 18:00:00 9.1 11 Este 33 Este 0 935.7 -0.7 66
2020-03-25 17:00:00 14.2 5 Oeste 27 Oeste 0 935 -2 42
2020-03-25 16:00:00 13.4 8 Oeste 21 Oeste 0 935.5 -2 44
2020-03-25 15:00:00 12.3 8 Oeste 17 Oeste 0 936.4 -1.6 50
2020-03-25 14:00:00 11.8 3 Oeste 17 Sur 0 937 -1.2 52
2020-03-25 13:00:00 10.5 3 Noroeste 10 Nordeste 0 937.5 -0.6 61
2020-03-25 12:00:00 8.5 2 Nordeste 6 Oeste 0 938 0 70
2020-03-25 11:00:00 7.8 0 Calma 11 Oeste 0 938.2 0.3 74
2020-03-25 10:00:00 6.7 0 Calma 6 Nordeste 0 938.1 0.3 89
2020-03-25 09:00:00 5.3 2 Nordeste 8 Nordeste 0 938 0.2 96
2020-03-25 08:00:00 4.7 0 Calma -- -- 0 937.9 -0.2 96
2020-03-25 07:00:00 4.5 0 Calma 5 Nordeste 0 937.8 -0.2 97
2020-03-25 06:00:00 4.3 0 Calma -- -- 0 937.8 -0.3 96
2020-03-25 05:00:00 3.7 0 Calma -- -- 0 938.1 -0.2 96
2020-03-25 04:00:00 4.3 0 Calma 5 Este 0 938 -0.5 95
2020-03-25 03:00:00 4.7 0 Calma -- -- 0 938.1 -0.3 93
2020-03-25 02:00:00 5.3 0 Calma 13 Este 0 938.3 -0.2 91
2020-03-25 01:00:00 6.1 4 Nordeste 14 Nordeste 0 938.5 0 90
2020-03-25 00:00:00 6.5 3 Nordeste 13 Este 0 938.4 0.1 88
2020-03-24 23:00:00 6.9 4 Nordeste 19 Este 0 938.5 0.6 87
2020-03-24 22:00:00 7.1 7 Nordeste 22 Este 0 938.5 1.1 86
2020-03-24 21:00:00 7.4 8 Nordeste 25 Este 0 938.3 1.4 84
2020-03-24 20:00:00 7.7 8 Nordeste 22 Este 0 937.9 1.4 85
2020-03-24 19:00:00 8.1 9 Nordeste 25 Este 0 937.4 1 87
2020-03-24 18:00:00 8 8 Nordeste 31 Este 0 936.9 0.4 89
2020-03-24 17:00:00 8.3 12 Nordeste 33 Este 0 936.5 -0.3 88
2020-03-24 16:00:00 8.6 13 Nordeste 32 Este 0 936.4 -0.5 89
2020-03-24 15:00:00 8.6 14 Nordeste 36 Nordeste 0 936.5 -0.6 89
2020-03-24 14:00:00 9 13 Nordeste 36 Este 0 936.8 -0.2 90
2020-03-24 13:00:00 9.1 15 Nordeste 33 Este 0 936.9 0 90
2020-03-24 12:00:00 9.1 13 Nordeste 40 Este 0.1 937.1 0.7 95
2020-03-24 11:00:00 8.7 13 Nordeste 42 Nordeste 0.1 937 0.4 97
2020-03-24 10:00:00 8.7 14 Nordeste 37 Nordeste 0.2 936.9 0.7 97
2020-03-24 09:00:00 8.5 6 Nordeste 15 Este 0.7 936.4 0.1 97
2020-03-24 08:00:00 8.2 5 Este 17 Nordeste 1.7 936.6 0.2 97
2020-03-24 07:00:00 8.1 0 Calma 8 Nordeste 2 936.2 -0.3 96
2020-03-24 06:00:00 8.4 0 Calma 4 Este 3.4 936.3 -0.1 93
2020-03-24 05:00:00 8.8 0 Calma 16 Este 0.6 936.4 -0.1 89
2020-03-24 04:00:00 9.1 6 Este 22 Sudeste 0.1 936.5 -0.2 88
2020-03-24 03:00:00 9.4 4 Este 18 Este 0 936.4 -0.8 86
2020-03-24 02:00:00 9.2 5 Este 25 Este 0 936.5 -1.1 90
2020-03-24 01:00:00 8.6 5 Este 17 Este 0 936.7 -0.6 95
2020-03-24 00:00:00 8.7 4 Este 14 Este 1 937.2 0.2 94
2020-03-23 23:00:00 9.1 6 Este 15 Este 0 937.6 0.9 92
2020-03-23 22:00:00 9.1 5 Este 21 Nordeste 0.1 937.3 1.2 93
2020-03-23 21:00:00 9.4 9 Nordeste 27 Nordeste 0.1 937 1 92
2020-03-23 20:00:00 9.5 6 Este 25 Este 0 936.7 1.2 92
2020-03-23 19:00:00 9.8 7 Nordeste 24 Este 0 936.1 0.4 91
2020-03-23 18:00:00 9.9 13 Nordeste 26 Nordeste 0 936 -0.2 89
2020-03-23 17:00:00 10.7 11 Nordeste 32 Este 0.6 935.5 -1.4 77
2020-03-23 16:00:00 12.9 3 Este 19 Nordeste 0 935.7 -1.6 64
2020-03-23 15:00:00 11.6 6 Este 28 Sudeste 0 936.2 -0.8 70
2020-03-23 14:00:00 10.2 9 Sudeste 29 Sudeste 0.2 936.9 0 76
2020-03-23 13:00:00 10.1 10 Sudeste 31 Sudeste 1.2 937.3 0.8 85
2020-03-23 12:00:00 11.6 9 Este 24 Nordeste 0 937 0.5 67
2020-03-23 11:00:00 12 9 Sudeste 24 Sudeste 0 936.9 0.9 66
2020-03-23 10:00:00 11.1 6 Este 20 Sudeste 0 936.5 1.1 83
2020-03-23 09:00:00 8.7 3 Este 13 Este 0 936.5 1.4 97
2020-03-23 08:00:00 7.7 2 Este 11 Este 0 936 1.1 97
2020-03-23 07:00:00 7.5 4 Este 12 Este 0 935.4 0.6 97
2020-03-23 06:00:00 7.3 3 Nordeste 7 Nordeste 0 935.1 0 97
2020-03-23 05:00:00 7.5 3 Este 10 Este 0 934.9 -0.4 97
2020-03-23 04:00:00 7.5 3 Este 9 Este 0 934.8 -0.7 97
2020-03-23 03:00:00 7.7 3 Este 9 Este 0 935.1 -0.7 97
2020-03-23 02:00:00 7.7 3 Este 8 Este 0.4 935.3 -0.5 96
2020-03-23 01:00:00 7.8 2 Este 11 Norte 0.3 935.5 0.2 95
2020-03-23 00:00:00 8 4 Nordeste 11 Este 0.1 935.8 1 92
2020-03-22 23:00:00 8.2 4 Este 11 Este 0 935.8 1.9 89
2020-03-22 22:00:00 8.4 4 Este 13 Nordeste 0 935.3 1.8 89
2020-03-22 21:00:00 8.7 3 Este 9 Este 0 934.8 2 88
2020-03-22 20:00:00 9.3 2 Este 11 Sudeste 0 933.9 1.2 83
2020-03-22 19:00:00 9.5 0 Calma 15 Este 0 933.5 0.9 86
2020-03-22 18:00:00 10 5 Este 19 Nordeste 0 932.8 0.1 86
2020-03-22 17:00:00 8.9 4 Sudeste 17 Sudeste 0.5 932.7 -0.4 86
2020-03-22 16:00:00 9.3 5 Sudeste 17 Sudoeste 0 932.6 -0.7 80
2020-03-22 15:00:00 9.6 3 Sur 14 Sur 0.2 932.7 -0.8 85
2020-03-22 14:00:00 9 5 Sudeste 17 Este 0.6 933.1 -0.4 87
2020-03-22 13:00:00 9.3 3 Este 11 Este 0.8 933.3 0.1 91
2020-03-22 12:00:00 8.9 0 Calma 6 Este 0 933.5 0.1 92
2020-03-22 11:00:00 7.8 0 Calma 5 Sudoeste 0 933.5 0.3 98
2020-03-22 10:00:00 6.4 0 Calma 7 Este 0 933.2 0.2 98
2020-03-22 09:00:00 4.6 0 Calma 7 Este 0 933.4 0.9 98
2020-03-22 08:00:00 3.9 4 Este 10 Este 0 933.2 0.7 98
2020-03-22 07:00:00 4.2 0 Calma 2 Nordeste 0 933 -0.1 98
2020-03-22 06:00:00 3.8 2 Este 10 Este 0 932.5 -0.8 98
2020-03-22 05:00:00 3.5 0 Calma 5 Norte 0 932.5 -1.1 98
2020-03-22 04:00:00 3.9 0 Calma 4 Nordeste 0 933.1 -1 98
2020-03-22 03:00:00 3.5 0 Calma -- -- 0 933.3 -1.1 98
2020-03-22 02:00:00 3.8 0 Calma 3 Este 0 933.6 -1 98
2020-03-22 01:00:00 4.4 0 Calma 4 Sudoeste 0 934.1 -0.3 98
2020-03-22 00:00:00 4.9 0 Calma 6 Sudoeste 0 934.4 -0.3 98
2020-03-21 23:00:00 5.3 0 Calma 6 Nordeste 0 934.6 -0.2 98
2020-03-21 22:00:00 6.1 0 Calma 12 Este 0 934.4 0.1 98
2020-03-21 21:00:00 6.5 3 Este 10 Este 0 934.7 0.5 98
2020-03-21 20:00:00 6.5 0 Calma 9 Este 1.9 934.8 0.8 97
2020-03-21 19:00:00 6.5 0 Calma 13 Oeste 3.4 934.3 0.4 95
2020-03-21 18:00:00 7.3 4 Sudoeste 17 Oeste 2.6 934.2 -0.2 95
2020-03-21 17:00:00 8.3 3 Oeste 14 Sudoeste 2.5 934 -0.7 96
2020-03-21 16:00:00 8.4 0 Calma 7 Norte 0.7 933.9 -1.1 95
2020-03-21 15:00:00 8.4 0 Calma 18 Oeste 1.5 934.4 -0.4 93
2020-03-21 14:00:00 8.7 10 Oeste 19 Oeste 0 934.7 -0.3 81
2020-03-21 13:00:00 9.1 8 Oeste 26 Sudoeste 0 935 -0.3 76
2020-03-21 12:00:00 11.8 3 Sudoeste 16 Este 0 934.8 -0.6 69
2020-03-21 11:00:00 11.7 4 Sudeste 19 Sudeste 0 935 -0.2 73
2020-03-21 10:00:00 9.6 4 Sudeste 19 Sudeste 0 935.3 0.2 90
2020-03-21 09:00:00 9.2 8 Sudeste 20 Sudeste 0 935.4 0.2 89
2020-03-21 08:00:00 8.8 3 Sudeste 14 Este 0 935.2 -0.1 89
2020-03-21 07:00:00 8.7 4 Este 14 Este 0 935.1 -0.5 89
2020-03-21 06:00:00 8.8 5 Este 17 Sudeste 0 935.2 -0.8 89
2020-03-21 05:00:00 9 6 Sudeste 17 Sudeste 0 935.3 -1.4 89
2020-03-21 04:00:00 8.7 2 Este 8 Este 0 935.6 -1.9 91
2020-03-21 03:00:00 8.9 4 Este 13 Este 0 936 -1.8 88
2020-03-21 02:00:00 9.1 4 Sudeste 17 Nordeste 0 936.7 -1.5 86
2020-03-21 01:00:00 9.1 4 Este 21 Este 0 937.5 -0.7 86
2020-03-21 00:00:00 9.1 4 Este 16 Nordeste 0 937.8 0.1 85
2020-03-20 23:00:00 9.2 5 Este 21 Este 0 938.2 0.7 83
2020-03-20 22:00:00 9 4 Este 19 Este 0 938.2 0.7 85
2020-03-20 21:00:00 9 6 Nordeste 21 Este 0 937.7 0.4 86
2020-03-20 20:00:00 9.3 8 Nordeste 23 Nordeste 0 937.5 0.1 85
2020-03-20 19:00:00 10 10 Nordeste 22 Este 0 937.5 -0.3 79
2020-03-20 18:00:00 11.2 9 Este 27 Nordeste 0 937.3 -1.2 70
2020-03-20 17:00:00 11.7 13 Este 30 Este 0 937.4 -1.5 71
2020-03-20 16:00:00 11.9 9 Este 23 Este 0 937.8 -1.2 69
2020-03-20 15:00:00 11.2 7 Este 23 Sudeste 0 938.5 -0.8 73
2020-03-20 14:00:00 11.5 5 Este 25 Este 0 938.9 -0.5 70
2020-03-20 13:00:00 12 7 Este 27 Este 0 939 -0.5 63
2020-03-20 12:00:00 12 9 Sudeste 21 Este 0 939.3 0 58
2020-03-20 11:00:00 11.6 6 Este 19 Este 0 939.4 0.4 63
2020-03-20 10:00:00 10.7 6 Este 20 Sudeste 0 939.5 0.6 78
2020-03-20 09:00:00 9.4 3 Este 10 Este 0 939.3 0.6 94
2020-03-20 08:00:00 8.1 3 Este 8 Este 0 939 0.2 96
2020-03-20 07:00:00 8 2 Este 9 Este 0 938.9 0 95
2020-03-20 06:00:00 7.9 3 Este 13 Este 0 938.7 -0.7 92
2020-03-20 05:00:00 7.7 3 Este 11 Este 0 938.8 -1.5 91
2020-03-20 04:00:00 7.3 3 Este 12 Sudeste 0 938.9 -1.4 89
2020-03-20 03:00:00 7.8 4 Este 14 Sudeste 0 939.4 -1.1 88
2020-03-20 02:00:00 8.2 4 Este 15 Este 0 940.3 -0.4 85
2020-03-20 01:00:00 9.1 4 Este 15 Nordeste 0 940.3 -0.4 78
2020-03-20 00:00:00 9.7 5 Este 19 Este 0 940.5 -0.1 80
2020-03-19 23:00:00 10 8 Este 23 Este 0 940.7 0.3 83
2020-03-19 22:00:00 10.2 7 Este 24 Nordeste 0 940.7 0.4 82
2020-03-19 21:00:00 10.7 6 Este 19 Este 0 940.6 0.5 80
2020-03-19 20:00:00 11.3 6 Este 19 Este 0 940.4 0.1 76
2020-03-19 19:00:00 11.9 8 Este 18 Este 0 940.3 -0.4 70
2020-03-19 18:00:00 12.3 8 Este 21 Este 0 940.1 -1.2 67
2020-03-19 17:00:00 13.1 8 Este 21 Este 0 940.3 -1.7 61
2020-03-19 16:00:00 13.1 8 Este 26 Este 0 940.7 -2.2 59
2020-03-19 15:00:00 13.4 8 Este 27 Este 0 941.3 -1.9 55
2020-03-19 14:00:00 13.6 6 Este 23 Este 0 942 -1.9 54
2020-03-19 13:00:00 13.3 8 Este 23 Este 0 942.9 -0.9 55
2020-03-19 12:00:00 13 9 Este 26 Sudeste 0 943.2 -0.5 57
2020-03-19 11:00:00 10.7 7 Este 15 Este 0 943.9 0.6 84
2020-03-19 10:00:00 8.8 5 Este 14 Este 0 943.8 0.2 98
2020-03-19 09:00:00 7.1 4 Este 10 Este 0 943.7 0 98
2020-03-19 08:00:00 5.2 3 Este 9 Este 0 943.3 -0.2 98
2020-03-19 07:00:00 4.3 0 Calma 7 Este 0 943.6 0 96
2020-03-19 06:00:00 4.3 0 Calma 6 Este 0 943.7 -0.5 95
2020-03-19 05:00:00 4.8 0 Calma 7 Este 0 943.5 -1.3 93
2020-03-19 04:00:00 5.2 3 Nordeste 10 Este 0 943.6 -1.6 92
2020-03-19 03:00:00 5.5 4 Este 12 Este 0 944.2 -1.6 89
2020-03-19 02:00:00 6.4 5 Este 14 Este 0 944.8 -1.5 87
2020-03-19 01:00:00 6.4 2 Este 9 Este 0 945.2 -1 83
2020-03-19 00:00:00 6.6 0 Calma 10 Este 0 945.8 0.1 82
2020-03-18 23:00:00 7.6 4 Este 16 Este 0 946.3 0.7 79
2020-03-18 22:00:00 8.5 5 Este 17 Sudeste 0 946.2 1.1 79
2020-03-18 21:00:00 9.5 6 Sudeste 17 Sudeste 0 945.7 1 72
2020-03-18 20:00:00 10.7 4 Este 20 Este 0 945.6 1 62
2020-03-18 19:00:00 11.9 7 Este 24 Este 0 945.1 0 55
2020-03-18 18:00:00 14.2 10 Este 26 Este 0 944.7 -0.6 51
2020-03-18 17:00:00 15.2 11 Este 27 Este 0 944.6 -1.7 47
2020-03-18 16:00:00 15.2 9 Nordeste 22 Este 0 945.1 -2 48
2020-03-18 15:00:00 14.4 6 Nordeste 19 Nordeste 0 945.3 -2.2 55
2020-03-18 14:00:00 13 5 Nordeste 20 Sudeste 0 946.3 -1.4 60
2020-03-18 13:00:00 11.7 5 Nordeste 21 Este 0 947.1 -0.8 66
2020-03-18 12:00:00 11.1 9 Nordeste 21 Este 0 947.5 0.1 71
2020-03-18 11:00:00 11 6 Nordeste 15 Este 0 947.7 0.3 77
2020-03-18 10:00:00 10.1 6 Nordeste 13 Nordeste 0 947.9 0.7 87
2020-03-18 09:00:00 9.6 3 Este 11 Este 0 947.4 0.5 91
2020-03-18 08:00:00 9.4 3 Nordeste 13 Este 0 947.4 0.6 90
2020-03-18 07:00:00 9.1 4 Nordeste 12 Este 0 947.2 0.6 90
2020-03-18 06:00:00 9.2 3 Nordeste 14 Nordeste 0 946.9 0.1 90
2020-03-18 05:00:00 8.9 5 Nordeste 14 Nordeste 0 946.8 -0.2 89
2020-03-18 04:00:00 8.8 6 Este 17 Este 0 946.6 -0.5 89
2020-03-18 03:00:00 8.9 4 Este 11 Nordeste 0 946.8 -0.7 87
2020-03-18 02:00:00 9.4 4 Este 18 Este 0 947 -0.6 85
2020-03-18 01:00:00 9.9 5 Nordeste 14 Nordeste 0 947.1 0.3 86
2020-03-18 00:00:00 10 3 Nordeste 14 Nordeste 0 947.5 1.3 89
2020-03-17 23:00:00 10.1 7 Este 26 Este 0 947.6 2.1 91
2020-03-17 22:00:00 10.3 9 Nordeste 32 Este 0 946.8 2 93
2020-03-17 21:00:00 10.7 10 Nordeste 41 Este 0 946.2 1.7 93
2020-03-17 20:00:00 10.9 19 Nordeste 47 Este 0 945.5 1 93
2020-03-17 19:00:00 11.6 15 Nordeste 38 Nordeste 0 944.8 0.2 88
2020-03-17 18:00:00 12 10 Nordeste 25 Nordeste 0 944.5 -0.1 93
2020-03-17 17:00:00 11.4 7 Nordeste 18 Este 0 944.5 -0.4 93
2020-03-17 16:00:00 11.3 8 Nordeste 20 Este 0 944.6 -0.7 92
2020-03-17 15:00:00 10.8 6 Nordeste 28 Este 0.2 944.6 -0.8 91
2020-03-17 14:00:00 11.8 6 Nordeste 22 Nordeste 0 944.9 0 81
2020-03-17 13:00:00 11.4 4 Nordeste 21 Este 0 945.3 0.8 80
2020-03-17 12:00:00 11.1 5 Este 21 Sudeste 0 945.4 1.7 74
2020-03-17 11:00:00 10.3 6 Este 23 Este 0 944.9 2 75
2020-03-17 10:00:00 8 3 Nordeste 8 Nordeste 0 944.5 2.3 96
2020-03-17 09:00:00 5 2 Este 6 Nordeste 0 943.7 2.5 97
2020-03-17 08:00:00 3.7 0 Calma 4 Este 0 942.9 2.3 97
2020-03-17 07:00:00 3.4 0 Calma 0 Calma 0 942.2 1.8 97
2020-03-17 06:00:00 3.1 0 Calma -- -- 0 941.2 0.8 97
2020-03-17 05:00:00 2.7 0 Calma 5 Oeste 0 940.6 0.4 97
2020-03-17 04:00:00 2.6 0 Calma 5 Sudoeste 0 940.4 0.5 97
2020-03-17 03:00:00 2.6 0 Calma -- -- 0 940.4 0.6 97
2020-03-17 02:00:00 2.9 0 Calma 3 Este 0 940.2 0.6 96
2020-03-17 01:00:00 2.9 0 Calma 0 Calma 0 939.9 1.3 96
2020-03-17 00:00:00 3 0 Calma 5 Nordeste 0.1 939.8 2.1 94
2020-03-16 23:00:00 3.3 3 Nordeste 6 Norte 0 939.6 2.6 93
2020-03-16 22:00:00 3.6 0 Calma 10 Nordeste 0 938.6 2.3 92
2020-03-16 21:00:00 4 5 Nordeste 13 Este 0 937.7 2 91
2020-03-16 20:00:00 4.2 3 Nordeste 15 Este 0 937 1.9 88
2020-03-16 19:00:00 5.1 9 Nordeste 19 Nordeste 0 936.3 1.2 82
2020-03-16 18:00:00 7 8 Nordeste 19 Norte 0 935.7 0.8 74
2020-03-16 17:00:00 6.8 8 Nordeste 20 Este 0 935.1 0.3 78
2020-03-16 16:00:00 6.5 10 Nordeste 20 Este 0 935.1 -0.2 78
2020-03-16 15:00:00 5.8 8 Nordeste 21 Este 0 934.9 -0.4 86
2020-03-16 14:00:00 4.5 7 Nordeste 19 Este 0 934.8 -0.4 89
2020-03-16 13:00:00 5.1 3 Nordeste 10 Norte 0 935.3 0.3 85
2020-03-16 12:00:00 4.8 0 Calma 15 Oeste 0.1 935.3 0.7 86
2020-03-16 11:00:00 4.8 6 Oeste 17 Oeste 0.2 935.2 1.4 79
2020-03-16 10:00:00 4.3 3 Sudoeste 23 Oeste 0.3 935 3.1 88
2020-03-16 09:00:00 4.4 8 Oeste 34 Oeste 2.2 934.6 3.1 92
2020-03-16 08:00:00 5.7 18 Oeste 39 Oeste 0.2 933.8 2.2 88
2020-03-16 07:00:00 10.8 3 Sur 19 Sudoeste 0 931.9 -0.6 91
2020-03-16 06:00:00 10.5 5 Sur 20 Sudeste 0 931.5 -2.1 94
2020-03-16 05:00:00 10.1 6 Sudeste 25 Sudeste 0 931.6 -2.8 95
2020-03-16 04:00:00 10.6 4 Sur 21 Sudeste 0 932.5 -2.5 95
2020-03-16 03:00:00 10.7 7 Sudeste 19 Sudeste 0.1 933.6 -1.4 96
2020-03-16 02:00:00 11.2 5 Sudeste 14 Sudeste 0.9 934.4 -1.4 96
2020-03-16 01:00:00 11.5 2 Sur 17 Sudeste 2.5 935 -0.9 93
2020-03-16 00:00:00 12.3 5 Sudeste 18 Sudeste 0 935 0.2 85
2020-03-15 23:00:00 12.7 3 Este 17 Sudeste 0 935.8 1.2 82
2020-03-15 22:00:00 13.1 8 Sudeste 21 Sudeste 0 935.9 1.2 76
2020-03-15 21:00:00 13.5 6 Sur 27 Sur 0 934.8 0.6 73
2020-03-15 20:00:00 14.3 7 Sur 30 Sur 0 934.6 0.1 65
2020-03-15 19:00:00 15.7 9 Sur 33 Sudeste 0 934.7 -0.3 56
2020-03-15 18:00:00 17.5 7 Sur 31 Sur 0 934.2 -1.6 45
2020-03-15 17:00:00 20.1 7 Sur 26 Sur 0 934.5 -2.4 37
2020-03-15 16:00:00 21.2 8 Sudeste 28 Sudoeste 0 935 -2.9 37
2020-03-15 15:00:00 19.7 8 Sur 26 Sur 0 935.8 -2.9 41
2020-03-15 14:00:00 18.8 6 Sur 24 Sudoeste 0 936.9 -2.3 42
2020-03-15 13:00:00 18 8 Sudeste 28 Sudeste 0 937.9 -1.8 46
2020-03-15 12:00:00 17.3 7 Sudeste 24 Sur 0 938.7 -1 49
2020-03-15 11:00:00 14.7 3 Sudeste 19 Sudeste 0 939.2 -0.1 64
2020-03-15 10:00:00 12.3 7 Sudeste 21 Sudeste 0 939.7 0.5 76
2020-03-15 09:00:00 11 8 Sudeste 17 Sudeste 0 939.7 0.5 89
2020-03-15 08:00:00 10.2 8 Sudeste 20 Sur 0 939.3 0 95
2020-03-15 07:00:00 10.2 5 Sudeste 23 Sudeste 0 939.2 -0.5 94
2020-03-15 06:00:00 10.3 4 Sur 18 Este 0 939.2 -1 94
2020-03-15 05:00:00 10.5 6 Sudeste 21 Sudeste 0 939.3 -1.2 93
2020-03-15 04:00:00 10.8 6 Sudeste 21 Sudeste 0 939.7 -1 92
2020-03-15 03:00:00 10.7 5 Sudeste 17 Sudeste 0 940.2 -0.5 92
2020-03-15 02:00:00 10.9 5 Este 13 Este 0 940.5 -0.1 89
2020-03-15 01:00:00 11.7 5 Este 17 Sudeste 0 940.7 0.3 86
2020-03-15 00:00:00 12.7 7 Sudeste 22 Este 0 940.7 0.5 81
2020-03-14 23:00:00 13.5 5 Sudeste 19 Sur 0 940.6 0.6 75
2020-03-14 22:00:00 14.5 5 Sudeste 18 Sudoeste 0 940.4 0.8 59
2020-03-14 21:00:00 15.8 4 Sur 18 Sudoeste 0 940.2 1.1 53
2020-03-14 20:00:00 16.9 5 Sur 17 Sudoeste 0 940 0.7 49
2020-03-14 19:00:00 18.7 5 Sur 21 Sudeste 0 939.6 0.2 44
2020-03-14 18:00:00 21.2 4 Sudoeste 12 Sudoeste 0 939.1 -0.9 38
2020-03-14 17:00:00 21.6 2 Sudoeste 12 Sudoeste 0 939.3 -1.4 39
2020-03-14 16:00:00 21.6 6 Sudeste 14 Sudeste 0 939.4 -2.1 40
2020-03-14 15:00:00 21 5 Sudoeste 13 Sur 0 940 -2.2 42
2020-03-14 14:00:00 20.6 2 Noroeste 11 Oeste 0 940.7 -1.8 43
2020-03-14 13:00:00 18.4 3 Sudeste 12 Este 0 941.5 -0.8 50
2020-03-14 12:00:00 15.8 3 Nordeste 9 Este 0 942.2 0.5 59
2020-03-14 11:00:00 13.3 0 Calma 7 Nordeste 0 942.5 1.3 66
2020-03-14 10:00:00 10.6 4 Este 9 Este 0 942.3 1.7 83
2020-03-14 09:00:00 7.5 2 Nordeste 5 Noroeste 0 941.7 1.3 98
2020-03-14 08:00:00 6.8 0 Calma 5 Este 0 941.2 0.9 98
2020-03-14 07:00:00 6.8 0 Calma 4 Este 0 940.6 0.2 96
2020-03-14 06:00:00 7.2 0 Calma 6 Este 0 940.4 -0.4 95
2020-03-14 05:00:00 7.4 3 Nordeste 6 Nordeste 0 940.3 -0.5 92
2020-03-14 04:00:00 8.1 0 Calma 6 Nordeste 0 940.4 -0.3 88
2020-03-14 03:00:00 10 3 Sudeste 15 Sur 0 940.8 0 75
2020-03-14 02:00:00 10.8 3 Sudeste 19 Sudeste 0 940.8 0.1 70
2020-03-14 01:00:00 11.1 4 Sudeste 21 Sudeste 0 940.7 0.6 72
2020-03-14 00:00:00 11.7 3 Sudeste 21 Sudeste 0 940.8 1 80
2020-03-13 23:00:00 12.4 8 Sudeste 25 Sudeste 0 940.7 1.5 80
2020-03-13 22:00:00 13.2 4 Este 15 Sudeste 0 940.1 1.7 75
2020-03-13 21:00:00 14.7 4 Este 13 Sudeste 0 939.8 1.9 53
2020-03-13 20:00:00 16.6 4 Sudeste 21 Sudeste 0 939.2 1.2 48
2020-03-13 19:00:00 18.6 6 Sur 21 Sudeste 0 938.4 0 45
2020-03-13 18:00:00 21.4 8 Sudeste 27 Este 0 937.9 -0.8 42
2020-03-13 17:00:00 22.5 7 Este 22 Este 0 938 -1.6 40
2020-03-13 16:00:00 21.8 7 Este 24 Este 0 938.4 -1.7 43
2020-03-13 15:00:00 22.2 4 Sudeste 21 Este 0 938.7 -2.2 43
2020-03-13 14:00:00 21 11 Este 22 Este 0 939.6 -1.5 47
2020-03-13 13:00:00 20 7 Nordeste 15 Este 0 940.1 -1 49
2020-03-13 12:00:00 17.9 5 Nordeste 17 Este 0 940.9 0.5 57
2020-03-13 11:00:00 14.7 5 Este 16 Este 0 941.1 1 69
2020-03-13 10:00:00 12.1 3 Nordeste 9 Este 0 941.1 1.5 81
2020-03-13 09:00:00 9.6 5 Nordeste 12 Este 0 940.4 1.2 89
2020-03-13 08:00:00 9.1 0 Calma 8 Este 0 940.1 1.3 88
2020-03-13 07:00:00 10.1 0 Calma 7 Este 0 939.6 0.6 81
2020-03-13 06:00:00 11.1 0 Calma 5 Norte 0 939.2 0 74
2020-03-13 05:00:00 13.1 0 Calma 7 Sudoeste 0 938.8 -0.6 64
2020-03-13 04:00:00 14.1 4 Oeste 9 Oeste 0 939 -0.6 63
2020-03-13 03:00:00 14 0 Calma 7 Sudoeste 0 939.2 -0.5 63
2020-03-13 02:00:00 14.9 3 Sudoeste 10 Sur 0 939.4 -0.4 60
2020-03-13 01:00:00 15.9 4 Sur 15 Sur 0 939.6 -0.1 56
2020-03-13 00:00:00 16.3 4 Sur 18 Sur 0 939.7 0.3 54
2020-03-12 23:00:00 17.1 6 Sur 17 Sudoeste 0 939.8 0.7 49
2020-03-12 22:00:00 18.2 4 Sur 17 Sudeste 0 939.7 0.8 43
2020-03-12 21:00:00 19.5 4 Sudeste 18 Sur 0 939.4 0.7 40
2020-03-12 20:00:00 20.8 4 Sur 15 Sudoeste 0 939.1 0.1 36
2020-03-12 19:00:00 23 5 Sudeste 19 Sudeste 0 938.9 -0.5 32
2020-03-12 18:00:00 24.7 7 Sudeste 23 Sudeste 0 938.7 -1.6 29
2020-03-12 17:00:00 25.9 5 Sudeste 22 Sur 0 939 -2.2 27
2020-03-12 16:00:00 26.6 4 Sur 22 Sudoeste 0 939.4 -2.8 26
2020-03-12 15:00:00 26.6 6 Sur 22 Sur 0 940.3 -2.7 27
2020-03-12 14:00:00 26.3 7 Sur 24 Sudoeste 0 941.2 -2.1 28
2020-03-12 13:00:00 25.8 5 Sudeste 15 Sudeste 0 942.2 -1.1 34
2020-03-12 12:00:00 20.7 4 Nordeste 10 Este 0 943 -0.5 53
2020-03-12 11:00:00 15.9 2 Este 6 Este 0 943.3 0 67
2020-03-12 10:00:00 12.5 3 Nordeste 6 Nordeste 0 943.3 0.3 78
2020-03-12 09:00:00 10.3 0 Calma -- -- 0 943.5 0.6 83
2020-03-12 08:00:00 8.5 0 Calma 0 Calma 0 943.3 0.1 88
2020-03-12 07:00:00 8.5 0 Calma -- -- 0 943 -0.5 86
2020-03-12 06:00:00 9.5 0 Calma -- -- 0 942.9 -1 83
2020-03-12 05:00:00 10.3 0 Calma 5 Este 0 943.2 -1.3 80
2020-03-12 04:00:00 11.2 0 Calma 4 Este 0 943.5 -1 76
2020-03-12 03:00:00 11.9 0 Calma 6 Este 0 943.9 -0.9 71
2020-03-12 02:00:00 13.3 0 Calma 9 Sudeste 0 944.5 -0.2 63
2020-03-12 01:00:00 16.3 0 Calma 11 Sur 0 944.5 0 56
2020-03-12 00:00:00 16.1 3 Sur 10 Sudeste 0 944.8 0.7 56
2020-03-11 23:00:00 16.7 0 Calma 10 Sudoeste 0 944.7 0.8 52
2020-03-11 22:00:00 16.8 3 Este 5 Este 0 944.5 0.7 53
2020-03-11 21:00:00 19 0 Calma 5 Oeste 0 944.1 0.3 43
2020-03-11 20:00:00 21.9 4 Oeste 9 Oeste 0 943.9 0 36
2020-03-11 19:00:00 24.3 4 Oeste 9 Oeste 0 943.8 -0.4 32
2020-03-11 18:00:00 26.5 5 Oeste 13 Noroeste 0 943.8 -0.8 28
2020-03-11 17:00:00 28 4 Noroeste 15 Oeste 0 943.9 -1.4 27
2020-03-11 16:00:00 27 0 Calma 14 Sudoeste 0 944.2 -2.2 31
2020-03-11 15:00:00 26.4 0 Calma 15 Sudoeste 0 944.6 -2.2 32
2020-03-11 14:00:00 24.3 4 Sudoeste 17 Sudoeste 0 945.3 -1.8 35
2020-03-11 13:00:00 23.2 2 Oeste 9 Oeste 0 946.4 -0.9 38
2020-03-11 12:00:00 20.4 0 Calma 9 Oeste 0 946.8 -0.3 45
2020-03-11 11:00:00 16.3 3 Oeste 9 Sudoeste 0 947.1 0.2 56
2020-03-11 10:00:00 13.1 2 Oeste 6 Sudoeste 0 947.3 0.9 65
2020-03-11 09:00:00 10.4 0 Calma 5 Oeste 0 947.1 0.7 73
2020-03-11 08:00:00 7.9 0 Calma 0 Calma 0 946.9 0.6 78
2020-03-11 07:00:00 7.8 0 Calma -- -- 0 946.4 0 75
2020-03-11 06:00:00 8.4 0 Calma 5 Este 0 946.4 -0.4 70
2020-03-11 05:00:00 10.1 3 Sudoeste 10 Oeste 0 946.3 -1 67
2020-03-11 04:00:00 10.2 0 Calma 6 Sudoeste 0 946.4 -1.2 66
2020-03-11 03:00:00 11.3 0 Calma 14 Sudoeste 0 946.8 -0.8 61
2020-03-11 02:00:00 11.8 0 Calma 8 Sudoeste 0 947.3 -0.3 60
2020-03-11 01:00:00 12.6 4 Sudoeste 11 Sudoeste 0 947.6 0.4 56
2020-03-11 00:00:00 13.1 5 Sudoeste 11 Sudoeste 0 947.6 0.7 54
2020-03-10 23:00:00 14.4 2 Oeste 12 Oeste 0 947.6 1 49
2020-03-10 22:00:00 16.1 4 Oeste 13 Sudoeste 0 947.2 1.1 43
2020-03-10 21:00:00 17.1 4 Oeste 9 Oeste 0 946.9 1 41
2020-03-10 20:00:00 18.8 6 Oeste 13 Oeste 0 946.6 0.7 38
2020-03-10 19:00:00 20.1 4 Oeste 18 Oeste 0 946.1 -0.3 36
2020-03-10 18:00:00 21.9 7 Oeste 19 Oeste 0 945.9 -0.9 33
2020-03-10 17:00:00 22.1 6 Oeste 22 Oeste 0 945.9 -1.7 33
2020-03-10 16:00:00 21.8 9 Oeste 23 Sudoeste 0 946.4 -1.8 33
2020-03-10 15:00:00 21 8 Oeste 24 Oeste 0 946.8 -2 35
2020-03-10 14:00:00 19.8 5 Oeste 22 Oeste 0 947.6 -1.5 36
2020-03-10 13:00:00 18.5 6 Noroeste 22 Oeste 0 948.2 -1 38
2020-03-10 12:00:00 16.5 8 Oeste 20 Oeste 0 948.8 0.2 42
2020-03-10 11:00:00 13.2 6 Oeste 17 Oeste 0 949.1 1.3 48
2020-03-10 10:00:00 10.8 5 Oeste 14 Oeste 0 949.2 1.6 55
2020-03-10 09:00:00 8.2 0 Calma 10 Oeste 0 948.6 1.6 60
2020-03-10 08:00:00 7.3 0 Calma 14 Oeste 0 947.8 0.8 60
2020-03-10 07:00:00 8 2 Oeste 11 Oeste 0 947.6 1.2 56
2020-03-10 06:00:00 8.6 3 Oeste 12 Oeste 0 947 0.6 53
2020-03-10 05:00:00 9 2 Nordeste 17 Norte 0 947 0.6 53
2020-03-10 04:00:00 9.7 2 Noroeste 14 Norte 0 946.4 0 50
2020-03-10 03:00:00 10.1 3 Oeste 18 Oeste 0 946.4 -0.1 50
2020-03-10 02:00:00 10.4 2 Noroeste 18 Noroeste 0 946.4 -0.2 49
2020-03-10 01:00:00 10.9 4 Noroeste 22 Noroeste 0 946.4 0.1 47
2020-03-10 00:00:00 11.1 5 Noroeste 17 Noroeste 0 946.5 1.3 47
2020-03-09 23:00:00 10.4 2 Noroeste 18 Norte 0 946.6 1.7 50
2020-03-09 22:00:00 11.1 3 Oeste 18 Oeste 0 946.3 1.3 50
2020-03-09 21:00:00 12.3 7 Oeste 23 Oeste 0 945.2 0.9 46
2020-03-09 20:00:00 13.6 5 Oeste 22 Oeste 0 944.9 0.2 42
2020-03-09 19:00:00 15.2 5 Oeste 24 Noroeste 0 945 0.4 37
2020-03-09 18:00:00 16.4 11 Oeste 32 Oeste 0 944.3 -0.6 36
2020-03-09 17:00:00 17.3 11 Oeste 38 Oeste 0 944.7 -1.1 36
2020-03-09 16:00:00 17.3 12 Oeste 34 Noroeste 0 944.6 -2.2 37
2020-03-09 15:00:00 16.4 10 Oeste 39 Oeste 0 944.9 -2.3 42
2020-03-09 14:00:00 15.8 9 Oeste 36 Oeste 0 945.8 -1.1 46
2020-03-09 13:00:00 14 9 Oeste 31 Oeste 0 946.8 0 52
2020-03-09 12:00:00 12.9 8 Oeste 27 Oeste 0 947.2 0.9 57
2020-03-09 11:00:00 10.6 9 Oeste 27 Oeste 0 946.9 1 69
2020-03-09 10:00:00 8.8 7 Oeste 23 Oeste 0 946.8 1 76
2020-03-09 09:00:00 7.3 7 Oeste 22 Noroeste 0 946.3 0.8 85
2020-03-09 08:00:00 6.4 6 Oeste 17 Oeste 0 945.9 0.5 87
2020-03-09 07:00:00 6.5 4 Oeste 18 Oeste 0 945.8 0.6 87
2020-03-09 06:00:00 6.6 5 Oeste 17 Oeste 0 945.5 0 86
2020-03-09 05:00:00 7 4 Oeste 21 Oeste 0 945.4 -0.1 84
2020-03-09 04:00:00 7.3 5 Oeste 21 Oeste 0 945.2 -0.5 81
2020-03-09 03:00:00 7.6 5 Oeste 24 Oeste 0 945.5 -0.1 76
2020-03-09 02:00:00 8.8 5 Oeste 19 Oeste 0 945.5 -0.2 64
2020-03-09 01:00:00 10.2 6 Oeste 14 Oeste 0 945.7 0.2 55
2020-03-09 00:00:00 10.3 6 Oeste 18 Oeste 0 945.6 0.4 51
2020-03-08 23:00:00 11.8 8 Oeste 17 Oeste 0 945.7 1 50
2020-03-08 22:00:00 12.8 4 Oeste 14 Sudoeste 0 945.5 0.7 47
2020-03-08 21:00:00 13.8 6 Oeste 16 Sudoeste 0 945.2 0.8 43
2020-03-08 20:00:00 14.5 7 Oeste 17 Oeste 0 944.7 0.5 39
2020-03-08 19:00:00 15.9 8 Oeste 25 Oeste 0 944.8 0.3 33
2020-03-08 18:00:00 17.7 9 Oeste 30 Oeste 0 944.4 -0.3 27
2020-03-08 17:00:00 19 9 Oeste 30 Oeste 0 944.2 -1.5 26
2020-03-08 16:00:00 19.5 11 Oeste 29 Oeste 0 944.5 -2.1 29
2020-03-08 15:00:00 18.3 9 Oeste 28 Oeste 0 944.7 -2.4 35
2020-03-08 14:00:00 17.5 8 Oeste 27 Oeste 0 945.7 -1.9 39
2020-03-08 13:00:00 16.2 9 Oeste 26 Oeste 0 946.6 -0.9 46
2020-03-08 12:00:00 14.2 6 Oeste 21 Oeste 0 947.1 -0.2 51
2020-03-08 11:00:00 10.8 8 Oeste 18 Oeste 0 947.6 0.9 63
2020-03-08 10:00:00 7.5 2 Sudoeste 6 Sudoeste 0 947.5 0.8 73
2020-03-08 09:00:00 5.1 3 Sudoeste 8 Sudoeste 0 947.3 1.2 83
2020-03-08 08:00:00 3.6 2 Sudoeste 9 Oeste 0 946.7 0.9 87
2020-03-08 07:00:00 2.9 0 Calma 6 Sudoeste 0 946.7 0.7 89
2020-03-08 06:00:00 2.4 0 Calma 6 Este 0 946.1 -0.3 86
2020-03-08 05:00:00 3.9 0 Calma 10 Oeste 0 945.8 -1 83
2020-03-08 04:00:00 4.7 0 Calma 11 Oeste 0 946 -0.8 77
2020-03-08 03:00:00 5.5 0 Calma 15 Oeste 0 946.4 -0.6 75
2020-03-08 02:00:00 6.4 2 Oeste 13 Oeste 0 946.8 0 71
2020-03-08 01:00:00 7.1 3 Oeste 13 Oeste 0 946.8 0.6 71
2020-03-08 00:00:00 7.1 0 Calma 22 Oeste 0 947 1 70
2020-03-07 23:00:00 8.5 4 Oeste 17 Oeste 0 946.8 1.7 64
2020-03-07 22:00:00 9.6 4 Oeste 20 Oeste 0 946.2 1.8 59
2020-03-07 21:00:00 9.9 9 Oeste 19 Oeste 0 946 2.2 56
2020-03-07 20:00:00 12.7 5 Noroeste 21 Oeste 0 945.1 1.4 45
2020-03-07 19:00:00 14.1 6 Oeste 24 Oeste 0 944.4 0.6 43
2020-03-07 18:00:00 15.5 7 Noroeste 27 Oeste 0 943.8 -0.7 40
2020-03-07 17:00:00 15.3 11 Oeste 28 Oeste 0 943.7 -1.4 40
2020-03-07 16:00:00 15.2 7 Noroeste 36 Oeste 0 943.8 -2.2 41
2020-03-07 15:00:00 14.1 9 Oeste 31 Oeste 0 944.5 -2.1 42
2020-03-07 14:00:00 13.5 9 Noroeste 37 Oeste 0 945.1 -1.7 43
2020-03-07 13:00:00 11.7 9 Oeste 31 Oeste 0 946 -1.4 45
2020-03-07 12:00:00 10.5 12 Oeste 33 Oeste 0 946.6 -0.6 47
2020-03-07 11:00:00 7.8 9 Oeste 25 Oeste 0 946.8 0.6 58
2020-03-07 10:00:00 4.9 2 Oeste 19 Oeste 0 947.4 1.8 70
2020-03-07 09:00:00 1.9 2 Oeste 15 Oeste 0 947.2 1.7 75
2020-03-07 08:00:00 1.7 0 Calma 17 Sudoeste 0 946.2 1.2 75
2020-03-07 07:00:00 1.3 0 Calma 14 Oeste 0 945.6 0.7 78
2020-03-07 06:00:00 0.9 0 Calma -- -- 0 945.5 0.6 77
2020-03-07 05:00:00 1.9 0 Calma 8 Oeste 0 945 0.5 70
2020-03-07 04:00:00 2 0 Calma 18 Oeste 0 944.9 0.6 67
2020-03-07 03:00:00 2.6 0 Calma 10 Oeste 0 944.9 1 65
2020-03-07 02:00:00 3.5 2 Oeste 14 Oeste 0 944.5 0.6 60
2020-03-07 01:00:00 4.7 5 Oeste 17 Oeste 0 944.3 1.1 55
2020-03-07 00:00:00 5.4 3 Noroeste 17 Oeste 0 943.9 1.5 53
2020-03-06 23:00:00 5.3 8 Oeste 17 Oeste 0 943.9 2.3 53
2020-03-06 22:00:00 6.3 5 Oeste 19 Oeste 0 943.2 2.1 50
2020-03-06 21:00:00 7.7 5 Oeste 23 Oeste 0 942.4 2.5 43
2020-03-06 20:00:00 8.4 4 Noroeste 23 Oeste 0 941.6 3 43
2020-03-06 19:00:00 10.3 6 Oeste 32 Oeste 0 941.1 2.5 40
2020-03-06 18:00:00 11 8 Oeste 41 Oeste 0 939.9 1.6 38
2020-03-06 17:00:00 11.9 10 Noroeste 44 Oeste 0 938.6 -0.1 37
2020-03-06 16:00:00 11.9 14 Oeste 52 Oeste 0 938.6 -0.3 35
2020-03-06 15:00:00 12.1 15 Oeste 51 Oeste 0 938.3 -0.7 38
2020-03-06 14:00:00 12.1 15 Oeste 59 Oeste 0.1 938.7 0.4 42
2020-03-06 13:00:00 11.1 17 Oeste 49 Noroeste 0 938.9 0.5 51
2020-03-06 12:00:00 7.7 15 Oeste 56 Oeste 0.1 939 1 81
2020-03-06 11:00:00 9.3 19 Oeste 51 Oeste 0 938.3 0.9 70
2020-03-06 10:00:00 7.9 19 Oeste 49 Oeste 0 938.4 1 75
2020-03-06 09:00:00 6.3 15 Oeste 34 Oeste 0 938 0.6 81
2020-03-06 08:00:00 4.9 5 Oeste 17 Oeste 0 937.4 -0.1 84
2020-03-06 07:00:00 4.9 2 Oeste 17 Noroeste 0 937.4 -0.1 84
2020-03-06 06:00:00 5.7 9 Oeste 24 Oeste 0 937.4 -0.1 81
2020-03-06 05:00:00 6.8 12 Oeste 30 Oeste 0 937.5 0.2 78
2020-03-06 04:00:00 8.3 12 Oeste 40 Oeste 0 937.5 0.1 76
2020-03-06 03:00:00 8.7 13 Oeste 34 Oeste 0 937.5 0.2 76
2020-03-06 02:00:00 9.1 9 Oeste 30 Oeste 0 937.3 0.1 76
2020-03-06 01:00:00 8.8 14 Oeste 42 Oeste 0 937.4 1 73
2020-03-06 00:00:00 9.3 10 Oeste 32 Oeste 0 937.3 1.6 70
2020-03-05 23:00:00 10 12 Oeste 37 Oeste 0 937.2 1.6 67
2020-03-05 22:00:00 10.5 9 Oeste 36 Oeste 0 936.4 1.5 64
2020-03-05 21:00:00 11 17 Oeste 44 Oeste 0 935.7 1.7 62
2020-03-05 20:00:00 12.2 18 Oeste 52 Oeste 0 935.6 1.7 58
2020-03-05 19:00:00 13.4 17 Oeste 46 Oeste 0 934.9 0.8 53
2020-03-05 18:00:00 14.6 19 Oeste 60 Oeste 0 934 -0.1 49
2020-03-05 17:00:00 15.5 23 Oeste 59 Oeste 0 933.9 -0.9 49
2020-03-05 16:00:00 14.2 21 Oeste 57 Oeste 0 934.1 -1.5 68
2020-03-05 15:00:00 13.7 27 Oeste 58 Oeste 0 934.1 -1.5 68
2020-03-05 14:00:00 14.4 16 Oeste 38 Oeste 0 934.8 -1.6 63
2020-03-05 13:00:00 14.8 16 Oeste 42 Oeste 0 935.6 -1.1 58
2020-03-05 12:00:00 15.4 16 Oeste 46 Oeste 0 935.6 -1.1 56
2020-03-05 11:00:00 14 17 Oeste 41 Oeste 0 936.4 -0.4 63
2020-03-05 10:00:00 12.5 12 Oeste 28 Oeste 0 936.7 0 70
2020-03-05 09:00:00 11.5 14 Oeste 29 Oeste 0 936.7 -0.8 78
2020-03-05 08:00:00 10.2 9 Oeste 23 Oeste 0 936.8 -1 82
2020-03-05 07:00:00 10.6 5 Oeste 20 Oeste 0 936.7 -1.6 78
2020-03-05 06:00:00 10.6 6 Oeste 23 Oeste 0 937.5 -1.7 76
2020-03-05 05:00:00 10.6 8 Sudoeste 27 Sudoeste 0 937.8 -2.3 70
2020-03-05 04:00:00 10.9 8 Oeste 22 Oeste 0 938.3 -2.3 69
2020-03-05 03:00:00 11.1 7 Oeste 25 Oeste 0 939.2 -1.9 67
2020-03-05 02:00:00 11.7 8 Oeste 28 Oeste 0 940.1 -1.4 65
2020-03-05 01:00:00 12 8 Oeste 24 Oeste 0 940.6 -0.5 65
2020-03-05 00:00:00 11.8 8 Oeste 31 Oeste 0 941.1 -0.5 66
2020-03-04 23:00:00 11.1 10 Oeste 28 Oeste 0 941.5 -0.2 67
2020-03-04 22:00:00 12 6 Oeste 20 Sur 0 941.1 -0.3 64
2020-03-04 21:00:00 12.6 8 Oeste 24 Sudoeste 0 941.6 0.1 61
2020-03-04 20:00:00 13.3 8 Oeste 21 Oeste 0 941.7 0.1 59
2020-03-04 19:00:00 13.9 8 Oeste 25 Oeste 0 941.4 -0.2 56
2020-03-04 18:00:00 14.6 13 Oeste 27 Oeste 0 941.5 -0.5 55
2020-03-04 17:00:00 15.1 8 Oeste 30 Oeste 0 941.6 -1 54
2020-03-04 16:00:00 15.3 8 Oeste 34 Oeste 0 941.6 -1.7 54
2020-03-04 15:00:00 15.2 10 Oeste 34 Oeste 0 942 -1.5 55
2020-03-04 14:00:00 15 18 Oeste 43 Oeste 0 942.6 -0.9 55
2020-03-04 13:00:00 14.8 14 Oeste 35 Oeste 0 943.3 0 58
2020-03-04 12:00:00 14.5 19 Oeste 48 Oeste 0 943.5 0.4 62
2020-03-04 11:00:00 13.9 12 Oeste 41 Oeste 0 943.5 0.8 73
2020-03-04 10:00:00 13.3 13 Oeste 32 Oeste 0 943.3 0.8 79
2020-03-04 09:00:00 12.4 10 Oeste 27 Oeste 0 943.1 0.8 85
2020-03-04 08:00:00 12.1 10 Oeste 32 Oeste 0 942.7 0.8 87
2020-03-04 07:00:00 12.2 10 Oeste 34 Oeste 0 942.5 0.7 86
2020-03-04 06:00:00 12.2 13 Oeste 35 Oeste 0 942.3 0.5 88
2020-03-04 05:00:00 11.5 4 Oeste 19 Oeste 0 941.9 0 90
2020-03-04 04:00:00 11.6 8 Oeste 27 Oeste 0 941.8 0.1 89
2020-03-04 03:00:00 12.1 15 Oeste 33 Oeste 0 941.8 -0.2 88
2020-03-04 02:00:00 11.5 11 Oeste 29 Oeste 0 941.9 0 90
2020-03-04 01:00:00 11.8 18 Oeste 37 Oeste 0 941.7 0.2 88
2020-03-04 00:00:00 12 17 Oeste 38 Oeste 0 942 1.2 85
2020-03-03 23:00:00 12.1 10 Oeste 37 Oeste 0 941.9 1.3 82
2020-03-03 22:00:00 12.3 17 Oeste 37 Oeste 0 941.5 2 81
2020-03-03 21:00:00 12 16 Oeste 42 Oeste 0 940.8 2.4 79
2020-03-03 20:00:00 12.1 18 Oeste 49 Oeste 0 940.6 2.3 78
2020-03-03 19:00:00 12.3 23 Oeste 58 Oeste 0 939.5 1.3 73
2020-03-03 18:00:00 13.3 27 Oeste 62 Noroeste 0 938.4 0.3 67
2020-03-03 17:00:00 13.8 28 Oeste 72 Oeste 0 938.3 -0.2 63
2020-03-03 16:00:00 14 28 Oeste 70 Oeste 0 938.2 -1 60
2020-03-03 15:00:00 14.5 27 Oeste 72 Oeste 0 938.1 -1.8 57
2020-03-03 14:00:00 13.7 29 Oeste 64 Oeste 0 938.5 -1.9 57
2020-03-03 13:00:00 12.5 23 Oeste 60 Oeste 0 939.2 -1.3 58
2020-03-03 12:00:00 11.1 23 Oeste 51 Oeste 0 939.9 -0.2 61
2020-03-03 11:00:00 8.9 19 Oeste 43 Oeste 0 940.4 0.9 70
2020-03-03 10:00:00 7.6 15 Oeste 34 Oeste 0 940.5 0.5 76
2020-03-03 09:00:00 6.7 12 Oeste 39 Oeste 0 940.1 0.8 80
2020-03-03 08:00:00 5.7 12 Oeste 32 Oeste 0 939.5 -0.4 82
2020-03-03 07:00:00 5.6 4 Oeste 27 Oeste 0 940 0.3 80
2020-03-03 06:00:00 5.1 8 Oeste 26 Oeste 0 939.3 -0.9 79
2020-03-03 05:00:00 5 10 Oeste 31 Oeste 0 939.9 -0.9 77
2020-03-03 04:00:00 5.2 12 Oeste 30 Oeste 0 939.7 -1.4 79
2020-03-03 03:00:00 5.3 12 Oeste 32 Oeste 0 940.2 -0.8 81
2020-03-03 02:00:00 5 11 Oeste 24 Oeste 0 940.8 0.6 78
2020-03-03 01:00:00 5.1 4 Oeste 17 Sudoeste 0 941.1 2 69
2020-03-03 00:00:00 5.2 3 Sudoeste 12 Sudoeste 0 941 2.6 67
2020-03-02 23:00:00 5.1 6 Oeste 20 Oeste 0 940.2 2.7 66
2020-03-02 22:00:00 6.2 8 Oeste 28 Oeste 0 939.1 3 60
2020-03-02 21:00:00 6.9 9 Oeste 31 Oeste 0 938.4 3.7 57
2020-03-02 20:00:00 7.5 8 Oeste 36 Oeste 0 937.5 4.9 60
2020-03-02 19:00:00 8 6 Oeste 36 Oeste 0 936.1 4.9 69
2020-03-02 18:00:00 8 10 Noroeste 41 Oeste 0.2 934.7 4.2 70
2020-03-02 17:00:00 10.8 9 Oeste 57 Oeste 1.3 932.6 1.9 71
2020-03-02 16:00:00 12.7 23 Oeste 64 Oeste 0 931.2 0.6 43
2020-03-02 15:00:00 14 32 Oeste 68 Oeste 0 930.5 0 40
2020-03-02 14:00:00 13.8 27 Oeste 73 Oeste 0 930.7 0.8 42
2020-03-02 13:00:00 15.1 30 Oeste 75 Oeste 0 930.6 1.4 40
2020-03-02 12:00:00 14.4 29 Oeste 69 Oeste 0 930.5 2.3 49
2020-03-02 11:00:00 12.4 28 Oeste 63 Oeste 1.5 929.9 2 84
2020-03-02 10:00:00 12.3 19 Oeste 68 Sudoeste 0 929.2 1.3 80
2020-03-02 09:00:00 13 21 Oeste 61 Oeste 0 928.2 -0.5 72
2020-03-02 08:00:00 12.3 18 Oeste 49 Sudoeste 0 927.9 -1.6 72
2020-03-02 07:00:00 12.2 19 Oeste 53 Sudoeste 0 927.9 -2.1 73
2020-03-02 06:00:00 11.8 22 Oeste 65 Sudoeste 0 928.7 -2.4 77
2020-03-02 05:00:00 11.6 18 Oeste 61 Oeste 0 929.5 -2.7 75
2020-03-02 04:00:00 12.3 21 Oeste 55 Oeste 0 930 -3.9 72
2020-03-02 03:00:00 12.3 18 Sudoeste 50 Sudoeste 0 931.1 -3.1 80
2020-03-02 02:00:00 12.1 12 Sudoeste 32 Sudoeste 0 932.2 -2.9 82
2020-03-02 01:00:00 11.9 13 Oeste 39 Sudoeste 0 933.9 -2.4 81
2020-03-02 00:00:00 11.6 12 Sudoeste 34 Noroeste 0 934.2 -2.1 77
2020-03-01 23:00:00 11 7 Sudoeste 30 Sudoeste 0 935.1 -1.6 75
2020-03-01 22:00:00 11.1 9 Sudoeste 28 Oeste 0 936.3 -0.4 73
2020-03-01 21:00:00 11.1 4 Sudoeste 35 Oeste 0 936.3 0.1 70
2020-03-01 20:00:00 11.6 10 Sudoeste 30 Sudoeste 0 936.7 0.1 67
2020-03-01 19:00:00 12.8 12 Oeste 37 Oeste 0 936.7 -0.1 63
2020-03-01 18:00:00 13.8 15 Oeste 40 Sudoeste 0 936.2 -0.8 59
2020-03-01 17:00:00 14.5 16 Oeste 46 Sudoeste 0 936.6 -1.3 58
2020-03-01 16:00:00 14.6 15 Oeste 45 Oeste 0 936.8 -1.6 58
2020-03-01 15:00:00 15.5 14 Oeste 46 Oeste 0 937 -1.7 53
2020-03-01 14:00:00 14.7 16 Oeste 58 Oeste 0 937.9 -0.9 57
2020-03-01 13:00:00 14.1 22 Oeste 55 Oeste 0 938.4 0 59
2020-03-01 12:00:00 12.8 22 Oeste 48 Oeste 0 938.7 0.7 65
2020-03-01 11:00:00 11.7 15 Oeste 44 Oeste 0 938.8 1.3 70
2020-03-01 10:00:00 10.8 18 Oeste 36 Oeste 0 938.4 1.3 76
2020-03-01 09:00:00 10 10 Oeste 27 Oeste 0 938 1.3 79
2020-03-01 08:00:00 9.7 10 Oeste 25 Oeste 0 937.5 0 79
2020-03-01 07:00:00 9.6 6 Oeste 25 Oeste 0 937.1 0 80
2020-03-01 06:00:00 9.8 7 Oeste 24 Oeste 0 936.7 0 79
2020-03-01 05:00:00 10.1 10 Oeste 35 Oeste 0 937.5 0.7 78
2020-03-01 04:00:00 10.2 8 Oeste 35 Oeste 0.1 937.1 -0.2 89
2020-03-01 03:00:00 11.7 10 Oeste 32 Oeste 0 936.7 -1 79
2020-03-01 02:00:00 11.8 15 Oeste 36 Oeste 0 936.8 -0.9 79
2020-03-01 01:00:00 11.3 15 Oeste 39 Oeste 0 937.3 -0.2 80
2020-03-01 00:00:00 12.1 13 Oeste 32 Oeste 0 937.7 0.5 78
2020-02-29 23:00:00 11.9 10 Oeste 26 Oeste 0 937.7 1 77
2020-02-29 22:00:00 11.7 8 Oeste 37 Sudoeste 0 937.5 1.1 75
2020-02-29 21:00:00 12.3 14 Oeste 29 Oeste 0 937.2 1.2 68
2020-02-29 20:00:00 13.4 8 Oeste 33 Sudoeste 0 936.7 0.6 63
2020-02-29 19:00:00 14.1 10 Oeste 30 Sudoeste 0 936.4 0.4 57
2020-02-29 18:00:00 15.6 12 Oeste 35 Sudoeste 0 936 -0.6 52
2020-02-29 17:00:00 15.6 15 Oeste 35 Oeste 0 936.1 -1 51
2020-02-29 16:00:00 16.4 12 Oeste 36 Noroeste 0 936 -1.5 47
2020-02-29 15:00:00 17 15 Oeste 38 Sudoeste 0 936.6 -1.2 46
2020-02-29 14:00:00 17.2 15 Oeste 36 Oeste 0 937.1 -1.1 47
2020-02-29 13:00:00 16.1 13 Sudoeste 34 Oeste 0 937.5 -0.7 50
2020-02-29 12:00:00 15.3 13 Oeste 37 Oeste 0 937.8 -0.3 50
2020-02-29 11:00:00 13.7 12 Oeste 33 Oeste 0 938.2 0.4 53
2020-02-29 10:00:00 11.6 11 Oeste 31 Sudoeste 0 938.2 0.7 63
2020-02-29 09:00:00 9.4 8 Sudoeste 24 Oeste 0 938.1 0.2 69
2020-02-29 08:00:00 9.2 7 Oeste 19 Sudoeste 0 937.8 0.5 70
2020-02-29 07:00:00 9.5 6 Sudoeste 26 Oeste 0 937.5 -0.4 70
2020-02-29 06:00:00 8.8 8 Oeste 20 Oeste 0 937.9 -0.6 69
2020-02-29 05:00:00 8.9 5 Oeste 15 Oeste 0 937.3 -1.7 63
2020-02-29 04:00:00 8.9 0 Calma 16 Sur 0 937.9 -1.4 62
2020-02-29 03:00:00 9.1 3 Sur 19 Sur 0 938.5 -1.4 60
2020-02-29 02:00:00 9.6 5 Sur 21 Sudeste 0 939 -1.3 58
2020-02-29 01:00:00 10 5 Sur 18 Sudoeste 0 939.3 -0.8 56
2020-02-29 00:00:00 10.5 4 Sur 19 Sur 0 939.9 -0.4 53
2020-02-28 23:00:00 11.3 4 Sur 17 Sudoeste 0 940.3 0.1 50
2020-02-28 22:00:00 12.1 8 Sur 22 Sudoeste 0 940.1 0.4 48
2020-02-28 21:00:00 13.4 5 Sur 19 Sudeste 0 940.3 0.5 43
2020-02-28 20:00:00 14.9 6 Sur 18 Sur 0 940.2 0 39
2020-02-28 19:00:00 17 5 Sudeste 18 Sudeste 0 939.7 -0.9 33
2020-02-28 18:00:00 19 3 Sudeste 19 Este 0 939.8 -1.3 28
2020-02-28 17:00:00 20 6 Sur 17 Sur 0 940.2 -1.9 26
2020-02-28 16:00:00 20.5 6 Sur 24 Sudeste 0 940.6 -2.8 27
2020-02-28 15:00:00 20 5 Nordeste 13 Este 0 941.1 -3.3 36
2020-02-28 14:00:00 19.4 0 Calma 10 Este 0 942.1 -2.8 37
2020-02-28 13:00:00 17.3 3 Este 10 Este 0 943.4 -1.6 42
2020-02-28 12:00:00 14.8 0 Calma 8 Sudoeste 0 944.4 -0.7 48
2020-02-28 11:00:00 11 2 Oeste 8 Sudoeste 0 944.9 0.3 62
2020-02-28 10:00:00 8.3 2 Oeste 9 Sudoeste 0 945 0.5 71
2020-02-28 09:00:00 6.4 0 Calma 7 Sudoeste 0 945.1 0.7 82
2020-02-28 08:00:00 4.9 0 Calma -- -- 0 944.6 0.2 84
2020-02-28 07:00:00 5.2 0 Calma 3 Este 0 944.5 -0.3 82
2020-02-28 06:00:00 5.9 0 Calma -- -- 0 944.4 -0.8 77
2020-02-28 05:00:00 7.2 0 Calma 9 Oeste 0 944.4 -1 72
2020-02-28 04:00:00 8 2 Sudoeste 13 Oeste 0 944.8 -0.9 69
2020-02-28 03:00:00 8.7 6 Oeste 18 Oeste 0 945.2 -0.4 65
2020-02-28 02:00:00 9.6 5 Oeste 15 Oeste 0 945.4 0.2 62
2020-02-28 01:00:00 9.9 6 Oeste 13 Sudoeste 0 945.7 1 57
2020-02-28 00:00:00 10.4 3 Sudoeste 10 Oeste 0 945.6 1.2 50